sensor_id;sensor_type;location;lat;lon;timestamp;P1;durP1;ratioP1;P2;durP2;ratioP2
23099;SDS011;53791;50.696;4.396;2023-08-06T00:00:02;4.20;;;3.90;;
23099;SDS011;53791;50.696;4.396;2023-08-06T00:02:30;4.50;;;4.10;;
23099;SDS011;53791;50.696;4.396;2023-08-06T00:04:58;4.22;;;3.92;;
23099;SDS011;53791;50.696;4.396;2023-08-06T00:07:25;4.50;;;4.10;;
23099;SDS011;53791;50.696;4.396;2023-08-06T00:09:53;4.17;;;3.83;;
23099;SDS011;53791;50.696;4.396;2023-08-06T00:12:20;4.42;;;4.03;;
23099;SDS011;53791;50.696;4.396;2023-08-06T00:14:51;4.12;;;3.83;;
23099;SDS011;53791;50.696;4.396;2023-08-06T00:17:19;4.12;;;3.83;;
23099;SDS011;53791;50.696;4.396;2023-08-06T00:19:47;4.15;;;3.85;;
23099;SDS011;53791;50.696;4.396;2023-08-06T00:22:14;4.58;;;4.17;;
23099;SDS011;53791;50.696;4.396;2023-08-06T00:24:42;4.10;;;3.80;;
23099;SDS011;53791;50.696;4.396;2023-08-06T00:27:09;5.05;;;4.33;;
23099;SDS011;53791;50.696;4.396;2023-08-06T00:29:37;7.75;;;4.17;;
23099;SDS011;53791;50.696;4.396;2023-08-06T00:32:04;4.15;;;3.85;;
23099;SDS011;53791;50.696;4.396;2023-08-06T00:34:32;4.33;;;4.03;;
23099;SDS011;53791;50.696;4.396;2023-08-06T00:36:59;4.75;;;4.30;;
23099;SDS011;53791;50.696;4.396;2023-08-06T00:39:27;4.58;;;4.17;;
23099;SDS011;53791;50.696;4.396;2023-08-06T00:41:54;4.20;;;3.80;;
23099;SDS011;53791;50.696;4.396;2023-08-06T00:44:22;5.40;;;4.67;;
23099;SDS011;53791;50.696;4.396;2023-08-06T00:46:49;4.15;;;3.85;;
23099;SDS011;53791;50.696;4.396;2023-08-06T00:49:17;4.60;;;4.15;;
23099;SDS011;53791;50.696;4.396;2023-08-06T00:51:45;4.47;;;4.08;;
23099;SDS011;53791;50.696;4.396;2023-08-06T00:54:13;4.58;;;4.17;;
23099;SDS011;53791;50.696;4.396;2023-08-06T00:56:41;4.10;;;3.80;;
23099;SDS011;53791;50.696;4.396;2023-08-06T00:59:09;5.25;;;4.80;;
23099;SDS011;53791;50.696;4.396;2023-08-06T01:01:38;4.83;;;4.33;;
23099;SDS011;53791;50.696;4.396;2023-08-06T01:04:06;4.33;;;4.03;;
23099;SDS011;53791;50.696;4.396;2023-08-06T01:06:56;4.75;;;4.33;;
23099;SDS011;53791;50.696;4.396;2023-08-06T01:09:44;5.30;;;4.83;;
23099;SDS011;53791;50.696;4.396;2023-08-06T01:17:26;5.80;;;5.17;;
23099;SDS011;53791;50.696;4.396;2023-08-06T01:19:54;5.58;;;4.92;;
23099;SDS011;53791;50.696;4.396;2023-08-06T01:22:21;5.15;;;4.75;;
23099;SDS011;53791;50.696;4.396;2023-08-06T01:24:50;5.20;;;4.67;;
23099;SDS011;53791;50.696;4.396;2023-08-06T01:27:23;4.78;;;4.37;;
23099;SDS011;53791;50.696;4.396;2023-08-06T01:30:02;5.05;;;4.65;;
23099;SDS011;53791;50.696;4.396;2023-08-06T01:32:46;4.53;;;4.12;;
23099;SDS011;53791;50.696;4.396;2023-08-06T01:35:16;5.00;;;4.60;;
23099;SDS011;53791;50.696;4.396;2023-08-06T01:37:46;4.47;;;4.10;;
23099;SDS011;53791;50.696;4.396;2023-08-06T01:40:14;5.28;;;4.58;;
23099;SDS011;53791;50.696;4.396;2023-08-06T01:42:42;4.83;;;4.42;;
23099;SDS011;53791;50.696;4.396;2023-08-06T01:45:13;7.83;;;5.03;;
23099;SDS011;53791;50.696;4.396;2023-08-06T01:47:38;4.30;;;4.00;;
23099;SDS011;53791;50.696;4.396;2023-08-06T01:50:06;6.00;;;4.50;;
23099;SDS011;53791;50.696;4.396;2023-08-06T01:52:34;6.50;;;4.62;;
23099;SDS011;53791;50.696;4.396;2023-08-06T01:55:01;4.60;;;4.30;;
23099;SDS011;53791;50.696;4.396;2023-08-06T01:57:29;4.50;;;4.20;;
23099;SDS011;53791;50.696;4.396;2023-08-06T01:59:56;4.28;;;3.95;;
23099;SDS011;53791;50.696;4.396;2023-08-06T02:02:24;5.00;;;4.58;;
23099;SDS011;53791;50.696;4.396;2023-08-06T02:04:51;4.30;;;4.00;;
23099;SDS011;53791;50.696;4.396;2023-08-06T02:07:24;5.42;;;4.92;;
23099;SDS011;53791;50.696;4.396;2023-08-06T02:09:48;4.90;;;4.42;;
23099;SDS011;53791;50.696;4.396;2023-08-06T02:12:15;7.10;;;4.65;;
23099;SDS011;53791;50.696;4.396;2023-08-06T02:14:43;4.67;;;4.28;;
23099;SDS011;53791;50.696;4.396;2023-08-06T02:17:12;6.87;;;4.40;;
23099;SDS011;53791;50.696;4.396;2023-08-06T02:19:39;4.15;;;3.85;;
23099;SDS011;53791;50.696;4.396;2023-08-06T02:22:08;4.67;;;4.28;;
23099;SDS011;53791;50.696;4.396;2023-08-06T02:24:36;4.30;;;4.00;;
23099;SDS011;53791;50.696;4.396;2023-08-06T02:27:03;4.17;;;3.87;;
23099;SDS011;53791;50.696;4.396;2023-08-06T02:29:31;4.67;;;4.28;;
23099;SDS011;53791;50.696;4.396;2023-08-06T02:31:58;4.72;;;4.33;;
23099;SDS011;53791;50.696;4.396;2023-08-06T02:34:28;4.33;;;4.03;;
23099;SDS011;53791;50.696;4.396;2023-08-06T02:36:55;4.53;;;4.12;;
23099;SDS011;53791;50.696;4.396;2023-08-06T02:39:23;4.47;;;4.15;;
23099;SDS011;53791;50.696;4.396;2023-08-06T02:41:51;3.90;;;3.60;;
23099;SDS011;53791;50.696;4.396;2023-08-06T02:44:18;3.92;;;3.62;;
23099;SDS011;53791;50.696;4.396;2023-08-06T02:46:46;3.65;;;3.35;;
23099;SDS011;53791;50.696;4.396;2023-08-06T02:49:13;4.00;;;3.70;;
23099;SDS011;53791;50.696;4.396;2023-08-06T02:51:41;4.22;;;3.80;;
23099;SDS011;53791;50.696;4.396;2023-08-06T02:54:10;4.10;;;3.80;;
23099;SDS011;53791;50.696;4.396;2023-08-06T02:56:37;3.77;;;3.47;;
23099;SDS011;53791;50.696;4.396;2023-08-06T02:59:05;3.67;;;3.37;;
23099;SDS011;53791;50.696;4.396;2023-08-06T03:01:33;3.80;;;3.50;;
23099;SDS011;53791;50.696;4.396;2023-08-06T03:04:02;3.80;;;3.50;;
23099;SDS011;53791;50.696;4.396;2023-08-06T03:06:30;4.35;;;4.05;;
23099;SDS011;53791;50.696;4.396;2023-08-06T03:08:58;5.20;;;4.80;;
23099;SDS011;53791;50.696;4.396;2023-08-06T03:11:25;5.62;;;5.10;;
23099;SDS011;53791;50.696;4.396;2023-08-06T03:13:53;5.10;;;4.70;;
23099;SDS011;53791;50.696;4.396;2023-08-06T03:16:20;5.40;;;5.00;;
23099;SDS011;53791;50.696;4.396;2023-08-06T03:18:48;5.05;;;4.65;;
23099;SDS011;53791;50.696;4.396;2023-08-06T03:21:15;5.03;;;4.62;;
23099;SDS011;53791;50.696;4.396;2023-08-06T03:23:43;5.12;;;4.70;;
23099;SDS011;53791;50.696;4.396;2023-08-06T03:26:13;4.45;;;4.10;;
23099;SDS011;53791;50.696;4.396;2023-08-06T03:28:40;4.30;;;4.00;;
23099;SDS011;53791;50.696;4.396;2023-08-06T03:31:09;5.00;;;4.60;;
23099;SDS011;53791;50.696;4.396;2023-08-06T03:33:37;4.62;;;4.22;;
23099;SDS011;53791;50.696;4.396;2023-08-06T03:36:05;5.17;;;4.67;;
23099;SDS011;53791;50.696;4.396;2023-08-06T03:38:32;5.12;;;4.72;;
23099;SDS011;53791;50.696;4.396;2023-08-06T03:41:00;8.20;;;5.53;;
23099;SDS011;53791;50.696;4.396;2023-08-06T03:43:27;4.50;;;4.05;;
23099;SDS011;53791;50.696;4.396;2023-08-06T03:45:55;4.78;;;4.40;;
23099;SDS011;53791;50.696;4.396;2023-08-06T03:48:22;4.75;;;4.42;;
23099;SDS011;53791;50.696;4.396;2023-08-06T03:50:50;5.55;;;5.05;;
23099;SDS011;53791;50.696;4.396;2023-08-06T03:53:17;5.25;;;4.85;;
23099;SDS011;53791;50.696;4.396;2023-08-06T03:55:45;4.90;;;4.50;;
23099;SDS011;53791;50.696;4.396;2023-08-06T03:58:12;4.80;;;4.50;;
23099;SDS011;53791;50.696;4.396;2023-08-06T04:00:40;4.67;;;4.37;;
23099;SDS011;53791;50.696;4.396;2023-08-06T04:03:07;5.05;;;4.65;;
23099;SDS011;53791;50.696;4.396;2023-08-06T04:05:35;5.15;;;4.75;;
23099;SDS011;53791;50.696;4.396;2023-08-06T04:08:02;5.05;;;4.65;;
23099;SDS011;53791;50.696;4.396;2023-08-06T04:10:30;4.80;;;4.40;;
23099;SDS011;53791;50.696;4.396;2023-08-06T04:12:57;4.90;;;4.55;;
23099;SDS011;53791;50.696;4.396;2023-08-06T04:15:29;5.00;;;4.60;;
23099;SDS011;53791;50.696;4.396;2023-08-06T04:17:54;5.30;;;4.90;;
23099;SDS011;53791;50.696;4.396;2023-08-06T04:20:22;5.20;;;4.80;;
23099;SDS011;53791;50.696;4.396;2023-08-06T04:22:50;5.20;;;4.80;;
23099;SDS011;53791;50.696;4.396;2023-08-06T04:25:17;5.20;;;4.80;;
23099;SDS011;53791;50.696;4.396;2023-08-06T04:27:49;5.22;;;4.83;;
23099;SDS011;53791;50.696;4.396;2023-08-06T04:30:16;5.25;;;4.85;;
23099;SDS011;53791;50.696;4.396;2023-08-06T04:32:44;5.60;;;5.20;;
23099;SDS011;53791;50.696;4.396;2023-08-06T04:35:11;5.47;;;5.08;;
23099;SDS011;53791;50.696;4.396;2023-08-06T04:37:39;5.70;;;5.30;;
23099;SDS011;53791;50.696;4.396;2023-08-06T04:40:07;5.95;;;5.53;;
23099;SDS011;53791;50.696;4.396;2023-08-06T04:42:34;5.97;;;5.55;;
23099;SDS011;53791;50.696;4.396;2023-08-06T04:45:02;6.00;;;5.50;;
23099;SDS011;53791;50.696;4.396;2023-08-06T04:47:30;10.35;;;5.78;;
23099;SDS011;53791;50.696;4.396;2023-08-06T04:49:57;5.67;;;5.28;;
23099;SDS011;53791;50.696;4.396;2023-08-06T04:52:25;5.80;;;5.40;;
23099;SDS011;53791;50.696;4.396;2023-08-06T04:54:54;8.13;;;5.58;;
23099;SDS011;53791;50.696;4.396;2023-08-06T04:57:22;6.03;;;5.60;;
23099;SDS011;53791;50.696;4.396;2023-08-06T04:59:49;6.50;;;6.00;;
23099;SDS011;53791;50.696;4.396;2023-08-06T05:02:17;6.05;;;5.65;;
23099;SDS011;53791;50.696;4.396;2023-08-06T05:04:44;6.75;;;6.22;;
23099;SDS011;53791;50.696;4.396;2023-08-06T05:07:12;7.08;;;6.12;;
23099;SDS011;53791;50.696;4.396;2023-08-06T05:09:39;6.22;;;5.72;;
23099;SDS011;53791;50.696;4.396;2023-08-06T05:12:07;9.30;;;6.45;;
23099;SDS011;53791;50.696;4.396;2023-08-06T05:14:34;7.08;;;6.55;;
23099;SDS011;53791;50.696;4.396;2023-08-06T05:17:02;6.45;;;5.95;;
23099;SDS011;53791;50.696;4.396;2023-08-06T05:19:30;6.12;;;5.72;;
23099;SDS011;53791;50.696;4.396;2023-08-06T05:21:58;6.85;;;6.35;;
23099;SDS011;53791;50.696;4.396;2023-08-06T05:24:26;6.35;;;5.95;;
23099;SDS011;53791;50.696;4.396;2023-08-06T05:26:54;7.12;;;6.62;;
23099;SDS011;53791;50.696;4.396;2023-08-06T05:29:21;7.50;;;7.00;;
23099;SDS011;53791;50.696;4.396;2023-08-06T05:31:49;6.90;;;6.40;;
23099;SDS011;53791;50.696;4.396;2023-08-06T05:34:16;7.30;;;6.75;;
23099;SDS011;53791;50.696;4.396;2023-08-06T05:36:44;7.42;;;6.83;;
23099;SDS011;53791;50.696;4.396;2023-08-06T05:39:11;6.87;;;6.37;;
23099;SDS011;53791;50.696;4.396;2023-08-06T05:41:40;7.05;;;6.55;;
23099;SDS011;53791;50.696;4.396;2023-08-06T05:44:08;8.25;;;7.55;;
23099;SDS011;53791;50.696;4.396;2023-08-06T05:46:35;7.33;;;6.83;;
23099;SDS011;53791;50.696;4.396;2023-08-06T05:49:03;7.55;;;6.97;;
23099;SDS011;53791;50.696;4.396;2023-08-06T05:51:30;8.48;;;7.67;;
23099;SDS011;53791;50.696;4.396;2023-08-06T05:53:58;7.90;;;7.33;;
23099;SDS011;53791;50.696;4.396;2023-08-06T05:56:25;7.80;;;6.83;;
23099;SDS011;53791;50.696;4.396;2023-08-06T05:58:53;11.18;;;7.10;;
23099;SDS011;53791;50.696;4.396;2023-08-06T06:01:20;8.05;;;7.47;;
23099;SDS011;53791;50.696;4.396;2023-08-06T06:03:48;8.98;;;7.47;;
23099;SDS011;53791;50.696;4.396;2023-08-06T06:06:16;7.53;;;7.03;;
23099;SDS011;53791;50.696;4.396;2023-08-06T06:08:44;7.62;;;7.03;;
23099;SDS011;53791;50.696;4.396;2023-08-06T06:11:12;7.05;;;6.55;;
23099;SDS011;53791;50.696;4.396;2023-08-06T06:13:39;7.10;;;6.60;;
23099;SDS011;53791;50.696;4.396;2023-08-06T06:16:07;7.60;;;7.08;;
23099;SDS011;53791;50.696;4.396;2023-08-06T06:18:34;8.88;;;8.18;;
23099;SDS011;53791;50.696;4.396;2023-08-06T06:21:02;7.53;;;7.03;;
23099;SDS011;53791;50.696;4.396;2023-08-06T06:23:29;6.85;;;6.35;;
23099;SDS011;53791;50.696;4.396;2023-08-06T06:25:57;7.60;;;7.08;;
23099;SDS011;53791;50.696;4.396;2023-08-06T06:28:24;7.92;;;7.40;;
23099;SDS011;53791;50.696;4.396;2023-08-06T06:30:52;8.65;;;7.85;;
23099;SDS011;53791;50.696;4.396;2023-08-06T06:33:19;7.97;;;7.42;;
23099;SDS011;53791;50.696;4.396;2023-08-06T06:35:47;11.10;;;8.73;;
23099;SDS011;53791;50.696;4.396;2023-08-06T06:38:16;8.10;;;7.50;;
23099;SDS011;53791;50.696;4.396;2023-08-06T06:40:43;8.73;;;7.92;;
23099;SDS011;53791;50.696;4.396;2023-08-06T06:43:12;7.60;;;7.00;;
23099;SDS011;53791;50.696;4.396;2023-08-06T06:45:40;7.30;;;6.80;;
23099;SDS011;53791;50.696;4.396;2023-08-06T06:48:07;8.63;;;7.92;;
23099;SDS011;53791;50.696;4.396;2023-08-06T06:50:35;8.40;;;7.80;;
23099;SDS011;53791;50.696;4.396;2023-08-06T06:53:04;7.75;;;7.22;;
23099;SDS011;53791;50.696;4.396;2023-08-06T06:55:32;10.75;;;8.25;;
23099;SDS011;53791;50.696;4.396;2023-08-06T06:58:00;8.13;;;7.53;;
23099;SDS011;53791;50.696;4.396;2023-08-06T07:00:27;7.47;;;6.97;;
23099;SDS011;53791;50.696;4.396;2023-08-06T07:02:55;8.00;;;7.40;;
23099;SDS011;53791;50.696;4.396;2023-08-06T07:05:22;7.70;;;7.15;;
23099;SDS011;53791;50.696;4.396;2023-08-06T07:07:50;8.23;;;7.62;;
23099;SDS011;53791;50.696;4.396;2023-08-06T07:10:19;7.42;;;6.92;;
23099;SDS011;53791;50.696;4.396;2023-08-06T07:12:46;7.75;;;7.20;;
23099;SDS011;53791;50.696;4.396;2023-08-06T07:15:14;8.18;;;7.60;;
23099;SDS011;53791;50.696;4.396;2023-08-06T07:17:43;7.45;;;6.95;;
23099;SDS011;53791;50.696;4.396;2023-08-06T07:20:11;7.70;;;7.20;;
23099;SDS011;53791;50.696;4.396;2023-08-06T07:22:38;7.58;;;6.97;;
23099;SDS011;53791;50.696;4.396;2023-08-06T07:25:06;7.70;;;7.20;;
23099;SDS011;53791;50.696;4.396;2023-08-06T07:27:33;8.13;;;7.53;;
23099;SDS011;53791;50.696;4.396;2023-08-06T07:30:01;8.25;;;7.60;;
23099;SDS011;53791;50.696;4.396;2023-08-06T07:32:29;7.15;;;6.65;;
23099;SDS011;53791;50.696;4.396;2023-08-06T07:34:56;7.45;;;6.95;;
23099;SDS011;53791;50.696;4.396;2023-08-06T07:37:26;7.70;;;7.20;;
23099;SDS011;53791;50.696;4.396;2023-08-06T07:39:54;8.10;;;7.50;;
23099;SDS011;53791;50.696;4.396;2023-08-06T07:42:24;7.40;;;6.90;;
23099;SDS011;53791;50.696;4.396;2023-08-06T07:44:56;7.97;;;7.37;;
23099;SDS011;53791;50.696;4.396;2023-08-06T07:47:25;7.95;;;7.37;;
23099;SDS011;53791;50.696;4.396;2023-08-06T07:49:52;7.25;;;6.75;;
23099;SDS011;53791;50.696;4.396;2023-08-06T07:52:20;8.15;;;7.08;;
23099;SDS011;53791;50.696;4.396;2023-08-06T07:54:47;6.90;;;6.40;;
23099;SDS011;53791;50.696;4.396;2023-08-06T07:57:15;7.37;;;6.87;;
23099;SDS011;53791;50.696;4.396;2023-08-06T07:59:42;8.13;;;7.42;;
23099;SDS011;53791;50.696;4.396;2023-08-06T08:02:10;7.55;;;7.03;;
23099;SDS011;53791;50.696;4.396;2023-08-06T08:04:42;7.62;;;7.12;;
23099;SDS011;53791;50.696;4.396;2023-08-06T08:07:06;7.47;;;6.92;;
23099;SDS011;53791;50.696;4.396;2023-08-06T08:09:42;7.83;;;7.22;;
23099;SDS011;53791;50.696;4.396;2023-08-06T08:12:06;9.05;;;7.85;;
23099;SDS011;53791;50.696;4.396;2023-08-06T08:14:39;8.43;;;7.83;;
23099;SDS011;53791;50.696;4.396;2023-08-06T08:17:03;9.83;;;7.80;;
23099;SDS011;53791;50.696;4.396;2023-08-06T08:19:32;7.75;;;7.20;;
23099;SDS011;53791;50.696;4.396;2023-08-06T08:22:00;8.30;;;7.65;;
23099;SDS011;53791;50.696;4.396;2023-08-06T08:24:27;8.38;;;7.78;;
23099;SDS011;53791;50.696;4.396;2023-08-06T08:26:56;8.95;;;8.35;;
23099;SDS011;53791;50.696;4.396;2023-08-06T08:29:24;8.15;;;7.55;;
23099;SDS011;53791;50.696;4.396;2023-08-06T08:31:51;7.62;;;7.12;;
23099;SDS011;53791;50.696;4.396;2023-08-06T08:34:19;8.43;;;7.83;;
23099;SDS011;53791;50.696;4.396;2023-08-06T08:36:48;8.53;;;7.92;;
23099;SDS011;53791;50.696;4.396;2023-08-06T08:39:15;9.75;;;7.95;;
23099;SDS011;53791;50.696;4.396;2023-08-06T08:41:43;8.18;;;7.47;;
23099;SDS011;53791;50.696;4.396;2023-08-06T08:44:10;7.78;;;7.28;;
23099;SDS011;53791;50.696;4.396;2023-08-06T08:46:40;8.23;;;7.53;;
23099;SDS011;53791;50.696;4.396;2023-08-06T08:49:09;8.23;;;7.55;;
23099;SDS011;53791;50.696;4.396;2023-08-06T08:51:39;7.97;;;7.37;;
23099;SDS011;53791;50.696;4.396;2023-08-06T08:54:07;8.53;;;7.67;;
23099;SDS011;53791;50.696;4.396;2023-08-06T08:56:35;7.33;;;6.83;;
23099;SDS011;53791;50.696;4.396;2023-08-06T08:59:02;7.62;;;7.10;;
23099;SDS011;53791;50.696;4.396;2023-08-06T09:01:32;7.10;;;6.60;;
23099;SDS011;53791;50.696;4.396;2023-08-06T09:04:02;7.40;;;6.90;;
23099;SDS011;53791;50.696;4.396;2023-08-06T09:06:31;7.50;;;7.00;;
23099;SDS011;53791;50.696;4.396;2023-08-06T09:09:08;7.72;;;7.17;;
23099;SDS011;53791;50.696;4.396;2023-08-06T09:11:33;7.22;;;6.72;;
23099;SDS011;53791;50.696;4.396;2023-08-06T09:14:05;7.83;;;7.25;;
23099;SDS011;53791;50.696;4.396;2023-08-06T09:16:34;7.45;;;6.95;;
23099;SDS011;53791;50.696;4.396;2023-08-06T09:19:08;8.00;;;7.35;;
23099;SDS011;53791;50.696;4.396;2023-08-06T09:21:41;8.00;;;7.40;;
23099;SDS011;53791;50.696;4.396;2023-08-06T09:24:10;7.80;;;7.30;;
23099;SDS011;53791;50.696;4.396;2023-08-06T09:26:40;7.67;;;7.03;;
23099;SDS011;53791;50.696;4.396;2023-08-06T09:29:11;6.65;;;6.22;;
23099;SDS011;53791;50.696;4.396;2023-08-06T09:31:42;7.10;;;6.50;;
23099;SDS011;53791;50.696;4.396;2023-08-06T09:34:11;7.50;;;6.90;;
23099;SDS011;53791;50.696;4.396;2023-08-06T09:36:43;7.05;;;6.53;;
23099;SDS011;53791;50.696;4.396;2023-08-06T09:39:13;7.87;;;7.15;;
23099;SDS011;53791;50.696;4.396;2023-08-06T09:41:42;6.78;;;6.28;;
23099;SDS011;53791;50.696;4.396;2023-08-06T09:44:16;7.03;;;6.53;;
23099;SDS011;53791;50.696;4.396;2023-08-06T09:46:48;6.62;;;6.12;;
23099;SDS011;53791;50.696;4.396;2023-08-06T09:49:22;6.67;;;6.17;;
23099;SDS011;53791;50.696;4.396;2023-08-06T09:51:46;6.00;;;5.60;;
23099;SDS011;53791;50.696;4.396;2023-08-06T09:54:16;7.00;;;6.33;;
23099;SDS011;53791;50.696;4.396;2023-08-06T09:56:46;6.00;;;5.60;;
23099;SDS011;53791;50.696;4.396;2023-08-06T09:59:14;5.50;;;5.10;;
23099;SDS011;53791;50.696;4.396;2023-08-06T10:01:45;5.72;;;5.30;;
23099;SDS011;53791;50.696;4.396;2023-08-06T10:04:13;5.67;;;5.28;;
23099;SDS011;53791;50.696;4.396;2023-08-06T10:06:46;5.35;;;4.95;;
23099;SDS011;53791;50.696;4.396;2023-08-06T10:09:14;6.45;;;5.83;;
23099;SDS011;53791;50.696;4.396;2023-08-06T10:11:44;9.73;;;6.00;;
23099;SDS011;53791;50.696;4.396;2023-08-06T10:14:20;6.28;;;5.65;;
23099;SDS011;53791;50.696;4.396;2023-08-06T10:16:51;5.28;;;4.87;;
23099;SDS011;53791;50.696;4.396;2023-08-06T10:19:20;5.97;;;5.33;;
23099;SDS011;53791;50.696;4.396;2023-08-06T10:24:49;5.00;;;4.60;;
23099;SDS011;53791;50.696;4.396;2023-08-06T10:32:53;4.60;;;4.30;;
23099;SDS011;53791;50.696;4.396;2023-08-06T10:35:34;5.00;;;4.60;;
23099;SDS011;53791;50.696;4.396;2023-08-06T10:38:17;5.62;;;5.08;;
23099;SDS011;53791;50.696;4.396;2023-08-06T10:41:00;4.97;;;4.58;;
23099;SDS011;53791;50.696;4.396;2023-08-06T10:43:30;4.33;;;4.03;;
23099;SDS011;53791;50.696;4.396;2023-08-06T10:46:04;5.42;;;4.53;;
23099;SDS011;53791;50.696;4.396;2023-08-06T10:48:36;4.33;;;4.03;;
23099;SDS011;53791;50.696;4.396;2023-08-06T10:51:13;5.62;;;5.00;;
23099;SDS011;53791;50.696;4.396;2023-08-06T10:53:38;4.55;;;4.22;;
23099;SDS011;53791;50.696;4.396;2023-08-06T10:56:23;4.65;;;4.25;;
23099;SDS011;53791;50.696;4.396;2023-08-06T10:58:55;3.80;;;3.50;;
23099;SDS011;53791;50.696;4.396;2023-08-06T11:01:23;4.35;;;3.95;;
23099;SDS011;53791;50.696;4.396;2023-08-06T11:03:51;4.50;;;4.15;;
23099;SDS011;53791;50.696;4.396;2023-08-06T11:06:19;4.42;;;4.10;;
23099;SDS011;53791;50.696;4.396;2023-08-06T11:08:49;4.78;;;4.25;;
23099;SDS011;53791;50.696;4.396;2023-08-06T11:11:18;4.25;;;3.90;;
23099;SDS011;53791;50.696;4.396;2023-08-06T11:13:46;3.75;;;3.45;;
23099;SDS011;53791;50.696;4.396;2023-08-06T11:16:15;3.87;;;3.58;;
23099;SDS011;53791;50.696;4.396;2023-08-06T11:18:50;5.33;;;4.92;;
23099;SDS011;53791;50.696;4.396;2023-08-06T11:21:20;5.40;;;4.90;;
23099;SDS011;53791;50.696;4.396;2023-08-06T11:23:48;5.22;;;4.80;;
23099;SDS011;53791;50.696;4.396;2023-08-06T11:26:22;4.80;;;4.40;;
23099;SDS011;53791;50.696;4.396;2023-08-06T11:28:49;4.72;;;4.33;;
23099;SDS011;53791;50.696;4.396;2023-08-06T11:31:20;4.85;;;4.45;;
23099;SDS011;53791;50.696;4.396;2023-08-06T11:33:51;5.25;;;4.83;;
23099;SDS011;53791;50.696;4.396;2023-08-06T11:36:32;4.60;;;4.30;;
23099;SDS011;53791;50.696;4.396;2023-08-06T11:39:01;5.90;;;4.40;;
23099;SDS011;53791;50.696;4.396;2023-08-06T11:41:32;4.97;;;4.55;;
23099;SDS011;53791;50.696;4.396;2023-08-06T11:44:00;6.22;;;5.15;;
23099;SDS011;53791;50.696;4.396;2023-08-06T11:46:40;4.28;;;3.98;;
23099;SDS011;53791;50.696;4.396;2023-08-06T11:49:00;4.70;;;4.30;;
23099;SDS011;53791;50.696;4.396;2023-08-06T11:51:29;4.80;;;4.40;;
23099;SDS011;53791;50.696;4.396;2023-08-06T11:54:01;4.22;;;3.92;;
23099;SDS011;53791;50.696;4.396;2023-08-06T11:56:28;4.15;;;3.75;;
23099;SDS011;53791;50.696;4.396;2023-08-06T11:58:56;3.72;;;3.42;;
23099;SDS011;53791;50.696;4.396;2023-08-06T12:01:25;3.95;;;3.65;;
23099;SDS011;53791;50.696;4.396;2023-08-06T12:03:57;4.05;;;3.65;;
23099;SDS011;53791;50.696;4.396;2023-08-06T12:06:30;3.62;;;3.33;;
23099;SDS011;53791;50.696;4.396;2023-08-06T12:08:59;3.65;;;3.35;;
23099;SDS011;53791;50.696;4.396;2023-08-06T12:11:26;5.55;;;4.45;;
23099;SDS011;53791;50.696;4.396;2023-08-06T12:13:57;4.78;;;4.37;;
23099;SDS011;53791;50.696;4.396;2023-08-06T12:16:28;4.50;;;4.10;;
23099;SDS011;53791;50.696;4.396;2023-08-06T12:19:00;4.20;;;3.90;;
23099;SDS011;53791;50.696;4.396;2023-08-06T12:21:26;5.53;;;4.78;;
23099;SDS011;53791;50.696;4.396;2023-08-06T12:23:53;4.10;;;3.80;;
23099;SDS011;53791;50.696;4.396;2023-08-06T12:26:21;5.35;;;4.58;;
23099;SDS011;53791;50.696;4.396;2023-08-06T12:28:50;5.12;;;4.67;;
23099;SDS011;53791;50.696;4.396;2023-08-06T12:31:20;4.50;;;4.10;;
23099;SDS011;53791;50.696;4.396;2023-08-06T12:33:50;5.05;;;4.65;;
23099;SDS011;53791;50.696;4.396;2023-08-06T12:36:20;5.03;;;4.62;;
23099;SDS011;53791;50.696;4.396;2023-08-06T12:41:21;4.78;;;4.37;;
23099;SDS011;53791;50.696;4.396;2023-08-06T12:43:49;7.67;;;4.97;;
23099;SDS011;53791;50.696;4.396;2023-08-06T12:46:16;6.50;;;5.40;;
23099;SDS011;53791;50.696;4.396;2023-08-06T12:48:46;4.65;;;4.20;;
23099;SDS011;53791;50.696;4.396;2023-08-06T12:51:14;4.60;;;4.30;;
23099;SDS011;53791;50.696;4.396;2023-08-06T12:53:41;4.97;;;4.58;;
23099;SDS011;53791;50.696;4.396;2023-08-06T12:56:09;4.05;;;3.75;;
23099;SDS011;53791;50.696;4.396;2023-08-06T12:58:37;4.22;;;3.90;;
23099;SDS011;53791;50.696;4.396;2023-08-06T13:01:05;4.40;;;4.10;;
23099;SDS011;53791;50.696;4.396;2023-08-06T13:03:33;4.03;;;3.72;;
23099;SDS011;53791;50.696;4.396;2023-08-06T13:06:01;4.35;;;3.98;;
23099;SDS011;53791;50.696;4.396;2023-08-06T13:08:28;5.33;;;4.75;;
23099;SDS011;53791;50.696;4.396;2023-08-06T13:10:56;4.67;;;4.28;;
23099;SDS011;53791;50.696;4.396;2023-08-06T13:13:23;4.78;;;4.37;;
23099;SDS011;53791;50.696;4.396;2023-08-06T13:15:55;4.33;;;4.03;;
23099;SDS011;53791;50.696;4.396;2023-08-06T13:18:23;4.30;;;4.00;;
23099;SDS011;53791;50.696;4.396;2023-08-06T13:20:52;7.95;;;4.75;;
23099;SDS011;53791;50.696;4.396;2023-08-06T13:23:23;4.83;;;4.42;;
23099;SDS011;53791;50.696;4.396;2023-08-06T13:25:50;4.87;;;4.47;;
23099;SDS011;53791;50.696;4.396;2023-08-06T13:28:19;9.68;;;4.75;;
23099;SDS011;53791;50.696;4.396;2023-08-06T13:30:49;5.42;;;4.92;;
23099;SDS011;53791;50.696;4.396;2023-08-06T13:33:18;4.53;;;4.22;;
23099;SDS011;53791;50.696;4.396;2023-08-06T13:35:46;4.62;;;4.22;;
23099;SDS011;53791;50.696;4.396;2023-08-06T13:38:15;4.92;;;4.53;;
23099;SDS011;53791;50.696;4.396;2023-08-06T13:40:42;4.30;;;4.00;;
23099;SDS011;53791;50.696;4.396;2023-08-06T13:43:13;4.50;;;4.20;;
23099;SDS011;53791;50.696;4.396;2023-08-06T13:45:42;4.92;;;4.53;;
23099;SDS011;53791;50.696;4.396;2023-08-06T13:48:10;4.70;;;4.30;;
23099;SDS011;53791;50.696;4.396;2023-08-06T13:50:37;4.47;;;4.12;;
23099;SDS011;53791;50.696;4.396;2023-08-06T13:53:05;5.05;;;4.35;;
23099;SDS011;53791;50.696;4.396;2023-08-06T13:55:34;4.37;;;3.98;;
23099;SDS011;53791;50.696;4.396;2023-08-06T13:58:34;4.55;;;4.20;;
23099;SDS011;53791;50.696;4.396;2023-08-06T14:01:12;4.20;;;3.80;;
23099;SDS011;53791;50.696;4.396;2023-08-06T14:03:41;4.75;;;3.80;;
23099;SDS011;53791;50.696;4.396;2023-08-06T14:06:09;3.95;;;3.65;;
23099;SDS011;53791;50.696;4.396;2023-08-06T14:08:38;4.28;;;3.90;;
23099;SDS011;53791;50.696;4.396;2023-08-06T14:11:05;3.90;;;3.60;;
23099;SDS011;53791;50.696;4.396;2023-08-06T14:13:33;4.33;;;4.00;;
23099;SDS011;53791;50.696;4.396;2023-08-06T14:16:05;4.10;;;3.72;;
23099;SDS011;53791;50.696;4.396;2023-08-06T14:18:50;6.15;;;3.70;;
23099;SDS011;53791;50.696;4.396;2023-08-06T14:21:18;5.22;;;3.83;;
23099;SDS011;53791;50.696;4.396;2023-08-06T14:23:45;3.70;;;3.40;;
23099;SDS011;53791;50.696;4.396;2023-08-06T14:26:13;3.60;;;3.30;;
23099;SDS011;53791;50.696;4.396;2023-08-06T14:28:41;3.58;;;3.25;;
23099;SDS011;53791;50.696;4.396;2023-08-06T14:31:08;9.30;;;4.17;;
23099;SDS011;53791;50.696;4.396;2023-08-06T14:33:36;4.87;;;3.40;;
23099;SDS011;53791;50.696;4.396;2023-08-06T14:36:03;3.58;;;3.27;;
23099;SDS011;53791;50.696;4.396;2023-08-06T14:38:31;4.15;;;3.12;;
23099;SDS011;53791;50.696;4.396;2023-08-06T14:40:58;3.30;;;3.00;;
23099;SDS011;53791;50.696;4.396;2023-08-06T14:43:26;3.20;;;2.90;;
23099;SDS011;53791;50.696;4.396;2023-08-06T14:45:53;3.12;;;2.83;;
23099;SDS011;53791;50.696;4.396;2023-08-06T14:48:21;3.42;;;3.12;;
23099;SDS011;53791;50.696;4.396;2023-08-06T14:50:49;4.55;;;3.27;;
23099;SDS011;53791;50.696;4.396;2023-08-06T14:53:22;3.27;;;2.95;;
23099;SDS011;53791;50.696;4.396;2023-08-06T14:55:49;3.20;;;2.90;;
23099;SDS011;53791;50.696;4.396;2023-08-06T14:58:17;3.35;;;3.05;;
23099;SDS011;53791;50.696;4.396;2023-08-06T15:00:46;3.50;;;3.20;;
23099;SDS011;53791;50.696;4.396;2023-08-06T15:03:13;2.70;;;2.50;;
23099;SDS011;53791;50.696;4.396;2023-08-06T15:05:43;8.13;;;3.50;;
23099;SDS011;53791;50.696;4.396;2023-08-06T15:08:11;4.55;;;3.60;;
23099;SDS011;53791;50.696;4.396;2023-08-06T15:10:39;3.70;;;3.27;;
23099;SDS011;53791;50.696;4.396;2023-08-06T15:13:06;3.05;;;2.80;;